sensor_id;sensor_type;location;lat;lon;timestamp;P1;durP1;ratioP1;P2;durP2;ratioP2
57441;SDS011;43284;47.042;15.498;2023-05-07T00:02:21;11.57;;;7.60;;
57441;SDS011;43284;47.042;15.498;2023-05-07T00:04:48;13.57;;;7.70;;
57441;SDS011;43284;47.042;15.498;2023-05-07T00:07:14;16.55;;;7.10;;
57441;SDS011;43284;47.042;15.498;2023-05-07T00:09:40;11.95;;;7.38;;
57441;SDS011;43284;47.042;15.498;2023-05-07T00:12:05;10.52;;;6.25;;
57441;SDS011;43284;47.042;15.498;2023-05-07T00:14:31;11.45;;;6.75;;
57441;SDS011;43284;47.042;15.498;2023-05-07T00:16:57;12.50;;;7.47;;
57441;SDS011;43284;47.042;15.498;2023-05-07T00:19:22;10.77;;;7.18;;
57441;SDS011;43284;47.042;15.498;2023-05-07T00:21:48;10.50;;;6.72;;
57441;SDS011;43284;47.042;15.498;2023-05-07T00:24:13;12.27;;;6.68;;
57441;SDS011;43284;47.042;15.498;2023-05-07T00:26:39;10.02;;;6.88;;
57441;SDS011;43284;47.042;15.498;2023-05-07T00:29:04;10.35;;;6.78;;
57441;SDS011;43284;47.042;15.498;2023-05-07T00:31:30;10.23;;;6.90;;
57441;SDS011;43284;47.042;15.498;2023-05-07T00:33:55;9.85;;;6.55;;
57441;SDS011;43284;47.042;15.498;2023-05-07T00:36:21;12.02;;;7.47;;
57441;SDS011;43284;47.042;15.498;2023-05-07T00:38:46;11.13;;;7.70;;
57441;SDS011;43284;47.042;15.498;2023-05-07T00:41:12;11.93;;;7.60;;
57441;SDS011;43284;47.042;15.498;2023-05-07T00:43:37;8.75;;;6.28;;
57441;SDS011;43284;47.042;15.498;2023-05-07T00:46:03;8.35;;;5.80;;
57441;SDS011;43284;47.042;15.498;2023-05-07T00:48:28;11.38;;;7.13;;
57441;SDS011;43284;47.042;15.498;2023-05-07T00:50:55;13.20;;;8.13;;
57441;SDS011;43284;47.042;15.498;2023-05-07T00:53:21;13.18;;;8.52;;
57441;SDS011;43284;47.042;15.498;2023-05-07T00:55:47;14.93;;;8.85;;
57441;SDS011;43284;47.042;15.498;2023-05-07T00:58:13;15.90;;;7.25;;
57441;SDS011;43284;47.042;15.498;2023-05-07T01:00:39;11.85;;;7.53;;
57441;SDS011;43284;47.042;15.498;2023-05-07T01:03:04;12.70;;;8.05;;
57441;SDS011;43284;47.042;15.498;2023-05-07T01:05:30;13.07;;;8.13;;
57441;SDS011;43284;47.042;15.498;2023-05-07T01:07:56;13.57;;;9.30;;
57441;SDS011;43284;47.042;15.498;2023-05-07T01:10:22;14.18;;;8.20;;
57441;SDS011;43284;47.042;15.498;2023-05-07T01:12:47;13.73;;;8.55;;
57441;SDS011;43284;47.042;15.498;2023-05-07T01:15:15;16.25;;;9.20;;
57441;SDS011;43284;47.042;15.498;2023-05-07T01:17:42;14.90;;;8.85;;
57441;SDS011;43284;47.042;15.498;2023-05-07T01:20:08;12.63;;;8.38;;
57441;SDS011;43284;47.042;15.498;2023-05-07T01:22:35;14.07;;;8.70;;
57441;SDS011;43284;47.042;15.498;2023-05-07T01:25:03;13.73;;;8.68;;
57441;SDS011;43284;47.042;15.498;2023-05-07T01:27:29;13.73;;;8.50;;
57441;SDS011;43284;47.042;15.498;2023-05-07T01:29:55;13.27;;;8.27;;
57441;SDS011;43284;47.042;15.498;2023-05-07T01:32:24;13.13;;;7.93;;
57441;SDS011;43284;47.042;15.498;2023-05-07T01:34:57;12.70;;;8.20;;
57441;SDS011;43284;47.042;15.498;2023-05-07T01:37:25;15.00;;;8.30;;
57441;SDS011;43284;47.042;15.498;2023-05-07T01:39:52;11.07;;;7.68;;
57441;SDS011;43284;47.042;15.498;2023-05-07T01:42:18;12.85;;;8.10;;
57441;SDS011;43284;47.042;15.498;2023-05-07T01:44:43;12.43;;;7.53;;
57441;SDS011;43284;47.042;15.498;2023-05-07T01:47:09;13.43;;;8.00;;
57441;SDS011;43284;47.042;15.498;2023-05-07T01:49:35;12.82;;;8.07;;
57441;SDS011;43284;47.042;15.498;2023-05-07T01:52:01;12.57;;;7.82;;
57441;SDS011;43284;47.042;15.498;2023-05-07T01:54:27;12.95;;;8.15;;
57441;SDS011;43284;47.042;15.498;2023-05-07T01:56:53;12.75;;;7.60;;
57441;SDS011;43284;47.042;15.498;2023-05-07T01:59:18;10.90;;;7.13;;
57441;SDS011;43284;47.042;15.498;2023-05-07T02:01:44;11.20;;;6.78;;
57441;SDS011;43284;47.042;15.498;2023-05-07T02:04:10;10.05;;;6.57;;
57441;SDS011;43284;47.042;15.498;2023-05-07T02:06:35;12.07;;;6.50;;
57441;SDS011;43284;47.042;15.498;2023-05-07T02:09:01;9.77;;;6.40;;
57441;SDS011;43284;47.042;15.498;2023-05-07T02:11:26;14.38;;;6.47;;
57441;SDS011;43284;47.042;15.498;2023-05-07T02:13:52;9.27;;;5.65;;
57441;SDS011;43284;47.042;15.498;2023-05-07T02:16:18;9.30;;;5.20;;
57441;SDS011;43284;47.042;15.498;2023-05-07T02:18:44;8.40;;;5.75;;
57441;SDS011;43284;47.042;15.498;2023-05-07T02:21:10;9.35;;;5.32;;
57441;SDS011;43284;47.042;15.498;2023-05-07T02:23:35;9.15;;;5.78;;
57441;SDS011;43284;47.042;15.498;2023-05-07T02:26:01;8.45;;;4.97;;
57441;SDS011;43284;47.042;15.498;2023-05-07T02:28:27;7.53;;;5.18;;
57441;SDS011;43284;47.042;15.498;2023-05-07T02:30:52;8.40;;;4.72;;
57441;SDS011;43284;47.042;15.498;2023-05-07T02:33:18;5.45;;;4.20;;
57441;SDS011;43284;47.042;15.498;2023-05-07T02:35:43;9.73;;;4.72;;
57441;SDS011;43284;47.042;15.498;2023-05-07T02:38:09;7.18;;;4.82;;
57441;SDS011;43284;47.042;15.498;2023-05-07T02:40:36;7.38;;;5.00;;
57441;SDS011;43284;47.042;15.498;2023-05-07T02:43:04;8.65;;;5.13;;
57441;SDS011;43284;47.042;15.498;2023-05-07T02:45:31;7.88;;;5.35;;
57441;SDS011;43284;47.042;15.498;2023-05-07T02:47:57;8.73;;;5.20;;
57441;SDS011;43284;47.042;15.498;2023-05-07T02:50:23;6.53;;;4.50;;
57441;SDS011;43284;47.042;15.498;2023-05-07T02:52:48;11.00;;;5.70;;
57441;SDS011;43284;47.042;15.498;2023-05-07T02:55:14;7.80;;;5.10;;
57441;SDS011;43284;47.042;15.498;2023-05-07T02:57:39;8.48;;;5.30;;
57441;SDS011;43284;47.042;15.498;2023-05-07T03:00:15;9.52;;;5.80;;
57441;SDS011;43284;47.042;15.498;2023-05-07T03:02:44;12.80;;;6.13;;
57441;SDS011;43284;47.042;15.498;2023-05-07T03:05:10;12.40;;;6.72;;
57441;SDS011;43284;47.042;15.498;2023-05-07T03:07:36;10.73;;;6.80;;
57441;SDS011;43284;47.042;15.498;2023-05-07T03:10:02;12.23;;;7.07;;
57441;SDS011;43284;47.042;15.498;2023-05-07T03:12:28;9.05;;;5.55;;
57441;SDS011;43284;47.042;15.498;2023-05-07T03:14:53;8.35;;;5.22;;
57441;SDS011;43284;47.042;15.498;2023-05-07T03:17:19;10.48;;;5.53;;
57441;SDS011;43284;47.042;15.498;2023-05-07T03:19:45;9.10;;;5.32;;
57441;SDS011;43284;47.042;15.498;2023-05-07T03:22:11;8.45;;;5.10;;
57441;SDS011;43284;47.042;15.498;2023-05-07T03:24:36;6.78;;;5.10;;
57441;SDS011;43284;47.042;15.498;2023-05-07T03:27:02;10.52;;;5.80;;
57441;SDS011;43284;47.042;15.498;2023-05-07T03:29:28;9.77;;;5.50;;
57441;SDS011;43284;47.042;15.498;2023-05-07T03:31:53;8.85;;;4.65;;
57441;SDS011;43284;47.042;15.498;2023-05-07T03:34:19;9.13;;;5.25;;
57441;SDS011;43284;47.042;15.498;2023-05-07T03:36:50;8.77;;;5.10;;
57441;SDS011;43284;47.042;15.498;2023-05-07T03:39:15;6.75;;;4.70;;
57441;SDS011;43284;47.042;15.498;2023-05-07T03:41:41;8.27;;;5.30;;
57441;SDS011;43284;47.042;15.498;2023-05-07T03:44:06;12.13;;;5.57;;
57441;SDS011;43284;47.042;15.498;2023-05-07T03:46:32;8.38;;;5.93;;
57441;SDS011;43284;47.042;15.498;2023-05-07T03:48:58;11.55;;;6.07;;
57441;SDS011;43284;47.042;15.498;2023-05-07T03:51:24;12.70;;;6.38;;
57441;SDS011;43284;47.042;15.498;2023-05-07T03:53:50;11.18;;;6.30;;
57441;SDS011;43284;47.042;15.498;2023-05-07T03:56:18;12.30;;;6.30;;
57441;SDS011;43284;47.042;15.498;2023-05-07T03:58:44;8.73;;;5.22;;
57441;SDS011;43284;47.042;15.498;2023-05-07T04:01:09;9.00;;;5.47;;
57441;SDS011;43284;47.042;15.498;2023-05-07T04:03:35;11.13;;;5.50;;
57441;SDS011;43284;47.042;15.498;2023-05-07T04:06:01;10.55;;;5.72;;
57441;SDS011;43284;47.042;15.498;2023-05-07T04:08:26;8.70;;;5.32;;
57441;SDS011;43284;47.042;15.498;2023-05-07T04:10:55;10.27;;;6.43;;
57441;SDS011;43284;47.042;15.498;2023-05-07T04:13:21;12.15;;;5.95;;
57441;SDS011;43284;47.042;15.498;2023-05-07T04:15:47;10.25;;;6.13;;
57441;SDS011;43284;47.042;15.498;2023-05-07T04:18:14;11.25;;;6.80;;
57441;SDS011;43284;47.042;15.498;2023-05-07T04:20:42;12.90;;;6.60;;
57441;SDS011;43284;47.042;15.498;2023-05-07T04:23:08;9.18;;;6.25;;
57441;SDS011;43284;47.042;15.498;2023-05-07T04:25:33;11.13;;;6.43;;
57441;SDS011;43284;47.042;15.498;2023-05-07T04:27:59;13.45;;;7.63;;
57441;SDS011;43284;47.042;15.498;2023-05-07T04:30:25;12.27;;;7.35;;
57441;SDS011;43284;47.042;15.498;2023-05-07T04:32:50;17.48;;;7.95;;
57441;SDS011;43284;47.042;15.498;2023-05-07T04:35:16;13.45;;;7.30;;
57441;SDS011;43284;47.042;15.498;2023-05-07T04:37:42;11.35;;;7.40;;
57441;SDS011;43284;47.042;15.498;2023-05-07T04:40:08;13.90;;;7.30;;
57441;SDS011;43284;47.042;15.498;2023-05-07T04:42:33;13.48;;;7.13;;
57441;SDS011;43284;47.042;15.498;2023-05-07T04:44:59;11.05;;;6.65;;
57441;SDS011;43284;47.042;15.498;2023-05-07T04:47:25;9.30;;;5.97;;
57441;SDS011;43284;47.042;15.498;2023-05-07T04:49:50;10.73;;;6.30;;
57441;SDS011;43284;47.042;15.498;2023-05-07T04:52:16;10.07;;;6.28;;
57441;SDS011;43284;47.042;15.498;2023-05-07T04:54:41;13.43;;;6.45;;
57441;SDS011;43284;47.042;15.498;2023-05-07T04:57:07;8.75;;;5.65;;
57441;SDS011;43284;47.042;15.498;2023-05-07T04:59:33;9.68;;;6.20;;
57441;SDS011;43284;47.042;15.498;2023-05-07T05:01:58;9.55;;;6.68;;
57441;SDS011;43284;47.042;15.498;2023-05-07T05:04:24;8.45;;;5.57;;
57441;SDS011;43284;47.042;15.498;2023-05-07T05:06:51;12.15;;;6.63;;
57441;SDS011;43284;47.042;15.498;2023-05-07T05:09:16;10.50;;;6.75;;
57441;SDS011;43284;47.042;15.498;2023-05-07T05:11:42;11.43;;;6.22;;
57441;SDS011;43284;47.042;15.498;2023-05-07T05:14:07;11.95;;;7.00;;
57441;SDS011;43284;47.042;15.498;2023-05-07T05:16:33;9.95;;;6.45;;
57441;SDS011;43284;47.042;15.498;2023-05-07T05:18:59;10.70;;;6.53;;
57441;SDS011;43284;47.042;15.498;2023-05-07T05:21:24;12.00;;;6.75;;
57441;SDS011;43284;47.042;15.498;2023-05-07T05:23:50;11.65;;;6.72;;
57441;SDS011;43284;47.042;15.498;2023-05-07T05:26:15;9.65;;;5.60;;
57441;SDS011;43284;47.042;15.498;2023-05-07T05:28:41;9.20;;;5.65;;
57441;SDS011;43284;47.042;15.498;2023-05-07T05:31:06;8.32;;;5.88;;
57441;SDS011;43284;47.042;15.498;2023-05-07T05:33:34;12.73;;;5.60;;
57441;SDS011;43284;47.042;15.498;2023-05-07T05:36:00;11.50;;;6.18;;
57441;SDS011;43284;47.042;15.498;2023-05-07T05:38:26;8.57;;;5.45;;
57441;SDS011;43284;47.042;15.498;2023-05-07T05:40:51;8.65;;;5.95;;
57441;SDS011;43284;47.042;15.498;2023-05-07T05:43:16;8.20;;;5.35;;
57441;SDS011;43284;47.042;15.498;2023-05-07T05:45:42;12.85;;;6.78;;
57441;SDS011;43284;47.042;15.498;2023-05-07T05:48:08;8.45;;;5.43;;
57441;SDS011;43284;47.042;15.498;2023-05-07T05:50:33;12.02;;;5.57;;
57441;SDS011;43284;47.042;15.498;2023-05-07T05:53:00;10.63;;;5.00;;
57441;SDS011;43284;47.042;15.498;2023-05-07T05:55:26;8.60;;;5.25;;
57441;SDS011;43284;47.042;15.498;2023-05-07T05:57:51;8.85;;;5.60;;
57441;SDS011;43284;47.042;15.498;2023-05-07T06:00:17;9.73;;;6.20;;
57441;SDS011;43284;47.042;15.498;2023-05-07T06:02:43;10.43;;;6.35;;
57441;SDS011;43284;47.042;15.498;2023-05-07T06:05:08;10.57;;;6.60;;
57441;SDS011;43284;47.042;15.498;2023-05-07T06:07:34;9.93;;;6.15;;
57441;SDS011;43284;47.042;15.498;2023-05-07T06:10:00;8.80;;;5.90;;
57441;SDS011;43284;47.042;15.498;2023-05-07T06:12:26;10.07;;;6.47;;
57441;SDS011;43284;47.042;15.498;2023-05-07T06:14:51;8.77;;;6.22;;
57441;SDS011;43284;47.042;15.498;2023-05-07T06:17:17;11.05;;;6.57;;
57441;SDS011;43284;47.042;15.498;2023-05-07T06:19:42;10.13;;;5.97;;
57441;SDS011;43284;47.042;15.498;2023-05-07T06:22:08;8.48;;;5.55;;
57441;SDS011;43284;47.042;15.498;2023-05-07T06:24:34;9.18;;;5.57;;
57441;SDS011;43284;47.042;15.498;2023-05-07T06:26:59;7.80;;;5.03;;
57441;SDS011;43284;47.042;15.498;2023-05-07T06:29:25;10.23;;;5.70;;
57441;SDS011;43284;47.042;15.498;2023-05-07T06:31:52;7.75;;;5.38;;
57441;SDS011;43284;47.042;15.498;2023-05-07T06:34:18;10.32;;;6.13;;
57441;SDS011;43284;47.042;15.498;2023-05-07T06:36:43;8.25;;;5.00;;
57441;SDS011;43284;47.042;15.498;2023-05-07T06:39:09;10.15;;;4.93;;
57441;SDS011;43284;47.042;15.498;2023-05-07T06:41:34;7.97;;;4.30;;
57441;SDS011;43284;47.042;15.498;2023-05-07T06:44:01;5.18;;;4.25;;
57441;SDS011;43284;47.042;15.498;2023-05-07T06:46:27;6.88;;;4.15;;
57441;SDS011;43284;47.042;15.498;2023-05-07T06:48:53;4.63;;;3.28;;
57441;SDS011;43284;47.042;15.498;2023-05-07T06:51:19;7.20;;;3.40;;
57441;SDS011;43284;47.042;15.498;2023-05-07T06:53:44;5.97;;;3.30;;
57441;SDS011;43284;47.042;15.498;2023-05-07T06:56:10;4.68;;;3.55;;
57441;SDS011;43284;47.042;15.498;2023-05-07T06:58:36;6.18;;;3.50;;
57441;SDS011;43284;47.042;15.498;2023-05-07T07:01:02;6.13;;;3.88;;
57441;SDS011;43284;47.042;15.498;2023-05-07T07:03:28;4.18;;;3.22;;
57441;SDS011;43284;47.042;15.498;2023-05-07T07:05:54;4.55;;;3.30;;
57441;SDS011;43284;47.042;15.498;2023-05-07T07:08:19;4.82;;;3.47;;
57441;SDS011;43284;47.042;15.498;2023-05-07T07:10:46;6.15;;;3.55;;
57441;SDS011;43284;47.042;15.498;2023-05-07T07:13:12;6.70;;;3.85;;
57441;SDS011;43284;47.042;15.498;2023-05-07T07:15:38;6.97;;;4.38;;
57441;SDS011;43284;47.042;15.498;2023-05-07T07:18:03;6.57;;;4.20;;
57441;SDS011;43284;47.042;15.498;2023-05-07T07:20:29;5.72;;;3.83;;
57441;SDS011;43284;47.042;15.498;2023-05-07T07:22:55;4.00;;;3.50;;
57441;SDS011;43284;47.042;15.498;2023-05-07T07:25:23;5.13;;;3.63;;
57441;SDS011;43284;47.042;15.498;2023-05-07T07:27:49;6.20;;;3.88;;
57441;SDS011;43284;47.042;15.498;2023-05-07T07:30:15;7.15;;;4.03;;
57441;SDS011;43284;47.042;15.498;2023-05-07T07:32:40;6.75;;;4.22;;
57441;SDS011;43284;47.042;15.498;2023-05-07T07:35:06;7.43;;;4.05;;
57441;SDS011;43284;47.042;15.498;2023-05-07T07:37:32;13.27;;;4.30;;
57441;SDS011;43284;47.042;15.498;2023-05-07T07:39:57;6.50;;;3.90;;
57441;SDS011;43284;47.042;15.498;2023-05-07T07:42:23;5.75;;;4.05;;
57441;SDS011;43284;47.042;15.498;2023-05-07T07:44:48;6.18;;;4.22;;
57441;SDS011;43284;47.042;15.498;2023-05-07T07:47:14;6.07;;;3.72;;
57441;SDS011;43284;47.042;15.498;2023-05-07T07:49:39;8.40;;;4.10;;
57441;SDS011;43284;47.042;15.498;2023-05-07T07:52:05;6.15;;;3.83;;
57441;SDS011;43284;47.042;15.498;2023-05-07T07:54:30;8.07;;;4.63;;
57441;SDS011;43284;47.042;15.498;2023-05-07T07:56:56;5.18;;;3.75;;
57441;SDS011;43284;47.042;15.498;2023-05-07T07:59:22;6.75;;;3.70;;
57441;SDS011;43284;47.042;15.498;2023-05-07T08:01:47;7.43;;;4.38;;
57441;SDS011;43284;47.042;15.498;2023-05-07T08:04:15;6.13;;;4.38;;
57441;SDS011;43284;47.042;15.498;2023-05-07T08:06:41;6.07;;;3.92;;
57441;SDS011;43284;47.042;15.498;2023-05-07T08:09:07;5.90;;;3.70;;
57441;SDS011;43284;47.042;15.498;2023-05-07T08:11:33;5.43;;;4.03;;
57441;SDS011;43284;47.042;15.498;2023-05-07T08:13:59;6.13;;;3.90;;
57441;SDS011;43284;47.042;15.498;2023-05-07T08:16:25;7.75;;;5.28;;
57441;SDS011;43284;47.042;15.498;2023-05-07T08:18:50;8.98;;;4.05;;
57441;SDS011;43284;47.042;15.498;2023-05-07T08:21:16;5.07;;;3.78;;
57441;SDS011;43284;47.042;15.498;2023-05-07T08:23:42;6.72;;;4.57;;
57441;SDS011;43284;47.042;15.498;2023-05-07T08:26:07;5.25;;;4.10;;
57441;SDS011;43284;47.042;15.498;2023-05-07T08:28:33;5.05;;;3.80;;
57441;SDS011;43284;47.042;15.498;2023-05-07T08:30:59;5.65;;;4.22;;
57441;SDS011;43284;47.042;15.498;2023-05-07T08:33:26;5.15;;;3.83;;
57441;SDS011;43284;47.042;15.498;2023-05-07T08:35:51;5.88;;;3.90;;
57441;SDS011;43284;47.042;15.498;2023-05-07T08:38:17;8.30;;;3.88;;
57441;SDS011;43284;47.042;15.498;2023-05-07T08:40:42;4.53;;;3.88;;
57441;SDS011;43284;47.042;15.498;2023-05-07T08:43:08;7.43;;;3.90;;
57441;SDS011;43284;47.042;15.498;2023-05-07T08:45:37;7.53;;;3.67;;
57441;SDS011;43284;47.042;15.498;2023-05-07T08:48:05;5.20;;;3.78;;
57441;SDS011;43284;47.042;15.498;2023-05-07T08:50:35;5.97;;;3.85;;
57441;SDS011;43284;47.042;15.498;2023-05-07T08:53:04;6.32;;;3.70;;
57441;SDS011;43284;47.042;15.498;2023-05-07T08:55:30;5.35;;;4.03;;
57441;SDS011;43284;47.042;15.498;2023-05-07T08:57:56;5.97;;;4.43;;
57441;SDS011;43284;47.042;15.498;2023-05-07T09:00:22;5.78;;;3.67;;
57441;SDS011;43284;47.042;15.498;2023-05-07T09:02:47;5.70;;;3.67;;
57441;SDS011;43284;47.042;15.498;2023-05-07T09:05:13;7.75;;;3.65;;
57441;SDS011;43284;47.042;15.498;2023-05-07T09:07:40;4.30;;;3.28;;
57441;SDS011;43284;47.042;15.498;2023-05-07T09:10:05;5.68;;;3.63;;
57441;SDS011;43284;47.042;15.498;2023-05-07T09:12:32;5.43;;;3.90;;
57441;SDS011;43284;47.042;15.498;2023-05-07T09:15:00;5.07;;;3.83;;
57441;SDS011;43284;47.042;15.498;2023-05-07T09:17:25;5.00;;;3.67;;
57441;SDS011;43284;47.042;15.498;2023-05-07T09:19:51;4.40;;;3.72;;
57441;SDS011;43284;47.042;15.498;2023-05-07T09:22:18;5.72;;;3.20;;
57441;SDS011;43284;47.042;15.498;2023-05-07T09:24:47;7.13;;;3.85;;
57441;SDS011;43284;47.042;15.498;2023-05-07T09:27:13;4.53;;;2.70;;
57441;SDS011;43284;47.042;15.498;2023-05-07T09:29:39;3.65;;;2.65;;
57441;SDS011;43284;47.042;15.498;2023-05-07T09:32:05;3.85;;;3.15;;
57441;SDS011;43284;47.042;15.498;2023-05-07T09:34:31;3.83;;;3.10;;
57441;SDS011;43284;47.042;15.498;2023-05-07T09:37:01;4.35;;;2.90;;
57441;SDS011;43284;47.042;15.498;2023-05-07T09:39:43;4.68;;;3.13;;
57441;SDS011;43284;47.042;15.498;2023-05-07T09:42:12;4.57;;;3.03;;
57441;SDS011;43284;47.042;15.498;2023-05-07T09:44:39;4.75;;;2.70;;
57441;SDS011;43284;47.042;15.498;2023-05-07T09:47:05;3.85;;;2.92;;
57441;SDS011;43284;47.042;15.498;2023-05-07T09:49:33;7.00;;;3.35;;
57441;SDS011;43284;47.042;15.498;2023-05-07T09:52:01;5.40;;;2.67;;
57441;SDS011;43284;47.042;15.498;2023-05-07T09:54:27;3.85;;;3.03;;
57441;SDS011;43284;47.042;15.498;2023-05-07T09:56:54;3.17;;;2.85;;
57441;SDS011;43284;47.042;15.498;2023-05-07T09:59:20;3.00;;;2.55;;
57441;SDS011;43284;47.042;15.498;2023-05-07T10:01:47;4.18;;;2.90;;
57441;SDS011;43284;47.042;15.498;2023-05-07T10:04:14;3.58;;;2.63;;
57441;SDS011;43284;47.042;15.498;2023-05-07T10:06:39;3.65;;;2.80;;
57441;SDS011;43284;47.042;15.498;2023-05-07T10:09:06;5.10;;;3.03;;
57441;SDS011;43284;47.042;15.498;2023-05-07T10:11:32;4.00;;;2.53;;
57441;SDS011;43284;47.042;15.498;2023-05-07T10:13:59;3.20;;;2.60;;
57441;SDS011;43284;47.042;15.498;2023-05-07T10:16:27;3.72;;;2.83;;
57441;SDS011;43284;47.042;15.498;2023-05-07T10:18:57;4.43;;;3.03;;
57441;SDS011;43284;47.042;15.498;2023-05-07T10:21:23;3.55;;;3.10;;
57441;SDS011;43284;47.042;15.498;2023-05-07T10:23:53;4.53;;;2.90;;
57441;SDS011;43284;47.042;15.498;2023-05-07T10:26:28;4.80;;;3.13;;
57441;SDS011;43284;47.042;15.498;2023-05-07T10:28:58;3.42;;;2.50;;
57441;SDS011;43284;47.042;15.498;2023-05-07T10:31:34;3.50;;;2.40;;
57441;SDS011;43284;47.042;15.498;2023-05-07T10:34:20;2.85;;;2.50;;
57441;SDS011;43284;47.042;15.498;2023-05-07T10:36:50;6.22;;;2.80;;
57441;SDS011;43284;47.042;15.498;2023-05-07T10:39:16;5.45;;;2.83;;
57441;SDS011;43284;47.042;15.498;2023-05-07T10:41:42;3.67;;;2.85;;
57441;SDS011;43284;47.042;15.498;2023-05-07T10:44:08;3.92;;;2.78;;
57441;SDS011;43284;47.042;15.498;2023-05-07T10:46:33;2.95;;;2.35;;
57441;SDS011;43284;47.042;15.498;2023-05-07T10:51:26;3.05;;;2.50;;
57441;SDS011;43284;47.042;15.498;2023-05-07T10:56:36;3.85;;;2.35;;
57441;SDS011;43284;47.042;15.498;2023-05-07T11:04:22;3.17;;;2.05;;
57441;SDS011;43284;47.042;15.498;2023-05-07T11:12:16;3.17;;;2.45;;
57441;SDS011;43284;47.042;15.498;2023-05-07T11:17:10;2.75;;;2.30;;
57441;SDS011;43284;47.042;15.498;2023-05-07T11:19:52;3.92;;;2.35;;
57441;SDS011;43284;47.042;15.498;2023-05-07T11:22:52;3.40;;;2.30;;
57441;SDS011;43284;47.042;15.498;2023-05-07T11:25:11;2.78;;;1.85;;
57441;SDS011;43284;47.042;15.498;2023-05-07T11:27:43;2.38;;;2.05;;
57441;SDS011;43284;47.042;15.498;2023-05-07T11:30:09;3.08;;;2.25;;
57441;SDS011;43284;47.042;15.498;2023-05-07T11:32:42;4.43;;;2.40;;
57441;SDS011;43284;47.042;15.498;2023-05-07T11:35:07;3.13;;;2.13;;
57441;SDS011;43284;47.042;15.498;2023-05-07T11:37:34;3.15;;;1.70;;
57441;SDS011;43284;47.042;15.498;2023-05-07T11:40:04;2.65;;;2.10;;
57441;SDS011;43284;47.042;15.498;2023-05-07T11:42:35;2.47;;;1.70;;
57441;SDS011;43284;47.042;15.498;2023-05-07T11:45:08;2.95;;;1.90;;
57441;SDS011;43284;47.042;15.498;2023-05-07T11:47:34;3.15;;;2.30;;
57441;SDS011;43284;47.042;15.498;2023-05-07T11:50:04;2.45;;;2.00;;
57441;SDS011;43284;47.042;15.498;2023-05-07T11:52:31;2.30;;;2.10;;
57441;SDS011;43284;47.042;15.498;2023-05-07T11:54:58;2.67;;;2.30;;
57441;SDS011;43284;47.042;15.498;2023-05-07T11:57:25;2.60;;;2.00;;
57441;SDS011;43284;47.042;15.498;2023-05-07T11:59:55;2.63;;;2.03;;
57441;SDS011;43284;47.042;15.498;2023-05-07T12:02:25;4.65;;;2.00;;
57441;SDS011;43284;47.042;15.498;2023-05-07T12:04:51;3.05;;;2.20;;
57441;SDS011;43284;47.042;15.498;2023-05-07T12:07:17;3.70;;;1.60;;
57441;SDS011;43284;47.042;15.498;2023-05-07T12:09:43;3.88;;;1.90;;
57441;SDS011;43284;47.042;15.498;2023-05-07T12:12:10;3.25;;;1.63;;
57441;SDS011;43284;47.042;15.498;2023-05-07T12:14:40;2.25;;;1.95;;
57441;SDS011;43284;47.042;15.498;2023-05-07T12:17:07;2.90;;;2.15;;
57441;SDS011;43284;47.042;15.498;2023-05-07T12:19:34;2.78;;;1.90;;
57441;SDS011;43284;47.042;15.498;2023-05-07T12:22:01;2.58;;;1.90;;
57441;SDS011;43284;47.042;15.498;2023-05-07T12:24:27;2.40;;;2.00;;
57441;SDS011;43284;47.042;15.498;2023-05-07T12:26:53;3.55;;;1.80;;
57441;SDS011;43284;47.042;15.498;2023-05-07T12:29:22;1.63;;;1.45;;
57441;SDS011;43284;47.042;15.498;2023-05-07T12:31:49;1.92;;;1.70;;
57441;SDS011;43284;47.042;15.498;2023-05-07T12:34:15;2.88;;;1.63;;
57441;SDS011;43284;47.042;15.498;2023-05-07T12:36:40;3.65;;;1.90;;
57441;SDS011;43284;47.042;15.498;2023-05-07T12:39:06;2.75;;;2.10;;
57441;SDS011;43284;47.042;15.498;2023-05-07T12:44:23;7.57;;;1.98;;
57441;SDS011;43284;47.042;15.498;2023-05-07T12:46:49;2.33;;;1.80;;
57441;SDS011;43284;47.042;15.498;2023-05-07T12:49:15;2.17;;;1.98;;
57441;SDS011;43284;47.042;15.498;2023-05-07T12:51:43;3.35;;;2.28;;
57441;SDS011;43284;47.042;15.498;2023-05-07T12:54:09;1.95;;;1.63;;
57441;SDS011;43284;47.042;15.498;2023-05-07T12:56:37;3.80;;;2.42;;
57441;SDS011;43284;47.042;15.498;2023-05-07T12:59:02;2.28;;;2.08;;
57441;SDS011;43284;47.042;15.498;2023-05-07T13:01:29;3.28;;;2.17;;
57441;SDS011;43284;47.042;15.498;2023-05-07T13:03:57;2.40;;;2.20;;
57441;SDS011;43284;47.042;15.498;2023-05-07T13:06:26;3.03;;;2.28;;
57441;SDS011;43284;47.042;15.498;2023-05-07T13:08:51;2.33;;;2.00;;
57441;SDS011;43284;47.042;15.498;2023-05-07T13:11:17;4.80;;;2.40;;
57441;SDS011;43284;47.042;15.498;2023-05-07T13:13:42;4.35;;;2.10;;
57441;SDS011;43284;47.042;15.498;2023-05-07T13:16:09;2.63;;;2.05;;
57441;SDS011;43284;47.042;15.498;2023-05-07T13:18:36;4.70;;;2.38;;
57441;SDS011;43284;47.042;15.498;2023-05-07T13:21:03;5.03;;;3.40;;
57441;SDS011;43284;47.042;15.498;2023-05-07T13:23:29;6.53;;;2.30;;
57441;SDS011;43284;47.042;15.498;2023-05-07T13:25:55;5.90;;;2.40;;
57441;SDS011;43284;47.042;15.498;2023-05-07T13:28:21;4.72;;;2.25;;
57441;SDS011;43284;47.042;15.498;2023-05-07T13:30:47;3.67;;;2.88;;
57441;SDS011;43284;47.042;15.498;2023-05-07T13:33:13;5.18;;;3.50;;
57441;SDS011;43284;47.042;15.498;2023-05-07T13:35:39;5.28;;;3.60;;
57441;SDS011;43284;47.042;15.498;2023-05-07T13:38:04;6.40;;;4.18;;
57441;SDS011;43284;47.042;15.498;2023-05-07T13:40:30;6.93;;;4.05;;
57441;SDS011;43284;47.042;15.498;2023-05-07T13:42:59;7.22;;;4.53;;
57441;SDS011;43284;47.042;15.498;2023-05-07T13:45:28;9.23;;;4.63;;
57441;SDS011;43284;47.042;15.498;2023-05-07T13:47:55;7.30;;;4.88;;
57441;SDS011;43284;47.042;15.498;2023-05-07T13:50:21;10.23;;;5.70;;
57441;SDS011;43284;47.042;15.498;2023-05-07T13:52:46;8.30;;;5.93;;
57441;SDS011;43284;47.042;15.498;2023-05-07T13:55:18;11.60;;;6.35;;
57441;SDS011;43284;47.042;15.498;2023-05-07T13:57:44;8.25;;;6.05;;
57441;SDS011;43284;47.042;15.498;2023-05-07T14:00:10;10.60;;;6.82;;
57441;SDS011;43284;47.042;15.498;2023-05-07T14:02:36;14.00;;;6.97;;
57441;SDS011;43284;47.042;15.498;2023-05-07T14:05:02;13.48;;;7.78;;
57441;SDS011;43284;47.042;15.498;2023-05-07T14:07:27;11.80;;;7.28;;
57441;SDS011;43284;47.042;15.498;2023-05-07T14:09:53;13.30;;;7.85;;
57441;SDS011;43284;47.042;15.498;2023-05-07T14:12:19;11.50;;;7.68;;
57441;SDS011;43284;47.042;15.498;2023-05-07T14:14:45;13.57;;;8.00;;
57441;SDS011;43284;47.042;15.498;2023-05-07T14:17:12;17.05;;;9.40;;
57441;SDS011;43284;47.042;15.498;2023-05-07T14:19:37;18.50;;;8.13;;
57441;SDS011;43284;47.042;15.498;2023-05-07T14:22:03;17.13;;;8.98;;
57441;SDS011;43284;47.042;15.498;2023-05-07T14:24:28;14.70;;;8.38;;
57441;SDS011;43284;47.042;15.498;2023-05-07T14:26:54;11.95;;;8.38;;
57441;SDS011;43284;47.042;15.498;2023-05-07T14:29:19;13.55;;;8.00;;
57441;SDS011;43284;47.042;15.498;2023-05-07T14:31:45;13.82;;;8.48;;
57441;SDS011;43284;47.042;15.498;2023-05-07T14:34:11;12.45;;;8.60;;
57441;SDS011;43284;47.042;15.498;2023-05-07T14:36:36;13.32;;;8.68;;
57441;SDS011;43284;47.042;15.498;2023-05-07T14:39:03;14.15;;;8.30;;
57441;SDS011;43284;47.042;15.498;2023-05-07T14:41:29;12.70;;;8.55;;
57441;SDS011;43284;47.042;15.498;2023-05-07T14:43:54;14.35;;;8.20;;
57441;SDS011;43284;47.042;15.498;2023-05-07T14:46:20;13.63;;;8.90;;
57441;SDS011;43284;47.042;15.498;2023-05-07T14:48:45;14.88;;;9.02;;